Time;durP1;ratioP1;P1;durP2;ratioP2;P2;SDS_P1;SDS_P2;PMS_P1;PMS_P2;Temp;Humidity;BMP_temperature;BMP_pressure;BME280_temperature;BME280_humidity;BME280_pressure;Samples;Min_cycle;Max_cycle;Signal;HPM_P1;HPM_P2
2023/01/27 00:02:07;;;;;;;15.43;8.40;;;;;;;-2.10;100.00;96381.75;4899044;28;20560;-79
2023/01/27 00:04:33;;;;;;;15.20;8.47;;;;;;;-2.10;100.00;96381.75;4875373;28;20030;-79
2023/01/27 00:06:58;;;;;;;14.13;8.87;;;;;;;-2.13;100.00;96379.34;4865714;28;20030;-79
2023/01/27 00:09:25;;;;;;;16.07;8.43;;;;;;;-2.15;100.00;96388.88;4886977;28;20038;-79
2023/01/27 00:14:35;;;;;;;15.27;8.23;;;;;;;-2.01;100.00;96385.59;4860644;28;23391;-78
2023/01/27 00:17:01;;;;;;;16.33;9.67;;;;;;;-2.19;100.00;96387.38;4852636;28;20469;-78
2023/01/27 00:19:29;;;;;;;15.20;8.30;;;;;;;-2.13;100.00;96379.34;4845096;28;20097;-78
2023/01/27 00:24:40;;;;;;;16.93;9.33;;;;;;;-2.25;100.00;96380.78;4878335;28;20616;-79
2023/01/27 00:27:08;;;;;;;18.00;9.63;;;;;;;-2.32;100.00;96387.16;4879380;28;20465;-79
2023/01/27 00:29:40;;;;;;;15.70;9.97;;;;;;;-2.30;100.00;96393.06;4875456;28;20481;-78
2023/01/27 00:34:50;;;;;;;15.73;8.63;;;;;;;-2.36;100.00;96385.66;4891216;28;20473;-79
2023/01/27 00:37:17;;;;;;;15.30;8.63;;;;;;;-2.25;100.00;96385.94;4904049;28;21294;-79
2023/01/27 00:39:43;;;;;;;16.93;9.50;;;;;;;-2.24;100.00;96379.06;4958080;28;20076;-79
2023/01/27 00:42:09;;;;;;;15.27;8.90;;;;;;;-2.29;100.00;96381.03;4957355;28;21101;-79
2023/01/27 00:44:35;;;;;;;14.07;7.93;;;;;;;-2.20;100.00;96385.72;4971869;28;20049;-79
2023/01/27 00:47:00;;;;;;;14.17;8.03;;;;;;;-2.25;100.00;96390.25;4973034;28;21249;-80
2023/01/27 00:49:26;;;;;;;15.93;9.13;;;;;;;-2.25;100.00;96391.09;4952634;28;20033;-79
2023/01/27 00:52:01;;;;;;;14.63;8.20;;;;;;;-2.19;100.00;96380.47;4971449;28;20037;-79
2023/01/27 00:54:28;;;;;;;15.10;9.23;;;;;;;-2.23;100.00;96388.44;4970426;28;20097;-79
2023/01/27 00:56:54;;;;;;;17.73;8.87;;;;;;;-2.29;100.00;96381.84;4949979;28;21366;-79
2023/01/27 00:59:21;;;;;;;16.30;9.30;;;;;;;-2.37;100.00;96386.56;4935881;28;20491;-79
2023/01/27 01:01:47;;;;;;;14.70;9.03;;;;;;;-2.43;100.00;96386.88;4912394;28;20469;-78
2023/01/27 01:04:12;;;;;;;16.47;9.00;;;;;;;-2.28;100.00;96383.53;4935970;28;22552;-78
2023/01/27 01:06:38;;;;;;;15.60;9.50;;;;;;;-2.40;100.00;96392.69;4896109;28;20122;-78
2023/01/27 01:09:04;;;;;;;15.23;9.23;;;;;;;-2.34;100.00;96383.00;4900285;28;20039;-79
2023/01/27 01:11:30;;;;;;;17.63;9.30;;;;;;;-2.38;100.00;96387.50;4863153;28;20039;-79
2023/01/27 01:13:56;;;;;;;14.90;9.03;;;;;;;-2.47;100.00;96383.63;4878360;28;20480;-79
2023/01/27 01:16:23;;;;;;;19.43;9.77;;;;;;;-2.43;100.00;96387.69;4807135;28;20404;-79
2023/01/27 01:18:49;;;;;;;16.63;9.63;;;;;;;-2.43;100.00;96385.13;4792700;28;20061;-80
2023/01/27 01:21:15;;;;;;;17.17;9.53;;;;;;;-2.45;100.00;96388.69;4802143;28;20549;-78
2023/01/27 01:23:43;;;;;;;18.77;9.83;;;;;;;-2.37;100.00;96389.16;4778259;28;20084;-78
2023/01/27 01:26:12;;;;;;;16.37;9.23;;;;;;;-2.34;100.00;96391.56;4766394;28;20463;-79
2023/01/27 01:28:38;;;;;;;17.80;9.57;;;;;;;-2.42;100.00;96393.69;4810642;28;21420;-78
2023/01/27 01:31:09;;;;;;;16.03;9.33;;;;;;;-2.32;100.00;96386.31;4787073;28;20477;-80
2023/01/27 01:33:35;;;;;;;15.63;9.87;;;;;;;-2.31;100.00;96386.25;4739810;28;20526;-78
2023/01/27 01:36:11;;;;;;;15.83;8.77;;;;;;;-2.27;100.00;96377.47;4770555;28;20464;-78
2023/01/27 01:38:37;;;;;;;16.43;9.27;;;;;;;-2.34;100.00;96386.41;4690356;28;20473;-78
2023/01/27 01:41:09;;;;;;;19.60;9.43;;;;;;;-2.29;100.00;96384.44;4753860;28;22491;-78
2023/01/27 01:43:34;;;;;;;18.77;9.53;;;;;;;-2.34;100.00;96393.31;4763381;28;20042;-78
2023/01/27 01:46:01;;;;;;;16.47;8.93;;;;;;;-2.26;100.00;96386.84;4814185;28;20469;-78
2023/01/27 01:48:47;;;;;;;15.07;8.60;;;;;;;-2.29;100.00;96379.28;4746252;28;20126;-78
2023/01/27 01:51:21;;;;;;;15.03;9.10;;;;;;;-2.23;100.00;96378.97;4758866;28;20473;-78
2023/01/27 01:54:13;;;;;;;19.00;9.33;;;;;;;-2.34;100.00;96373.53;4796011;28;21049;-77
2023/01/27 01:56:48;;;;;;;13.73;8.53;;;;;;;-2.27;100.00;96371.50;4821005;28;20484;-78
2023/01/27 01:59:30;;;;;;;15.93;8.80;;;;;;;-2.29;100.00;96374.13;4793430;28;20481;-78
2023/01/27 02:02:01;;;;;;;16.90;8.73;;;;;;;-2.28;100.00;96370.66;4852881;28;20507;-78
2023/01/27 02:04:35;;;;;;;16.33;9.27;;;;;;;-2.23;100.00;96360.94;4857296;28;20539;-78
2023/01/27 02:07:07;;;;;;;15.37;9.20;;;;;;;-2.34;100.00;96360.66;4889605;28;20492;-78
2023/01/27 02:09:33;;;;;;;14.67;9.03;;;;;;;-2.38;100.00;96370.28;4905875;28;20467;-78
2023/01/27 02:12:00;;;;;;;17.10;9.67;;;;;;;-2.37;100.00;96366.78;4880346;28;21566;-78
2023/01/27 02:14:26;;;;;;;15.87;9.23;;;;;;;-2.30;100.00;96375.03;4866317;28;20484;-78
2023/01/27 02:16:52;;;;;;;15.33;9.47;;;;;;;-2.40;100.00;96359.22;4873972;28;20476;-78
2023/01/27 02:19:43;;;;;;;19.27;10.00;;;;;;;-2.42;100.00;96347.31;4891529;28;20046;-78
2023/01/27 02:22:16;;;;;;;18.43;10.17;;;;;;;-2.53;100.00;96350.44;4863788;28;20169;-78
2023/01/27 02:24:45;;;;;;;;;;;;;;;-2.46;100.00;96359.53;4844035;28;20841;-78
2023/01/27 02:27:13;;;;;;;17.20;10.10;;;;;;;-2.46;100.00;96356.94;4860562;28;19921;-78
2023/01/27 02:29:39;;;;;;;17.13;9.90;;;;;;;-2.55;100.00;96361.72;4783816;28;20465;-78
2023/01/27 02:32:05;;;;;;;17.60;9.87;;;;;;;-2.58;100.00;96362.72;4808367;28;20560;-78
2023/01/27 02:34:36;;;;;;;18.03;10.50;;;;;;;-2.61;100.00;96365.44;4781671;28;20446;-78
2023/01/27 02:37:07;;;;;;;19.27;10.73;;;;;;;-2.58;100.00;96357.56;4736945;28;20042;-78
2023/01/27 02:39:38;;;;;;;20.47;10.67;;;;;;;-2.67;100.00;96364.00;4746853;28;20595;-78
2023/01/27 02:42:06;;;;;;;19.80;11.40;;;;;;;-2.68;100.00;96364.91;4807088;28;20511;-78
2023/01/27 02:44:33;;;;;;;17.80;10.67;;;;;;;-2.60;100.00;96361.97;4792749;28;21023;-78
2023/01/27 02:47:02;;;;;;;18.27;10.67;;;;;;;-2.54;100.00;96374.53;4776236;28;21412;-78
2023/01/27 02:49:27;;;;;;;18.13;9.67;;;;;;;-2.55;100.00;96364.28;4773388;28;23031;-78
2023/01/27 02:51:53;;;;;;;21.13;10.20;;;;;;;-2.62;100.00;96366.34;4791116;28;20034;-78
2023/01/27 02:54:23;;;;;;;18.67;10.07;;;;;;;-2.67;100.00;96366.56;4786098;28;20041;-78
2023/01/27 02:56:50;;;;;;;18.67;10.80;;;;;;;-2.68;100.00;96362.34;4739313;28;21081;-79
2023/01/27 02:59:16;;;;;;;17.73;11.13;;;;;;;-2.64;100.00;96357.88;4809242;28;21220;-78
2023/01/27 03:01:43;;;;;;;16.87;9.23;;;;;;;-2.68;100.00;96361.50;4740811;28;20461;-78
2023/01/27 03:04:10;;;;;;;20.73;10.67;;;;;;;-2.62;100.00;96367.19;4771714;28;20030;-79
2023/01/27 03:06:37;;;;;;;19.53;10.57;;;;;;;-2.69;100.00;96363.22;4795091;28;20465;-78
2023/01/27 03:09:04;;;;;;;21.10;10.80;;;;;;;-2.77;100.00;96367.09;4809980;28;20480;-78
2023/01/27 03:14:15;;;;;;;22.80;10.93;;;;;;;-2.74;100.00;96352.34;4771328;28;20472;-79
2023/01/27 03:19:27;;;;;;;19.77;11.03;;;;;;;-2.75;100.00;96366.13;4816229;28;20465;-79
2023/01/27 03:21:55;;;;;;;20.83;10.93;;;;;;;-2.68;100.00;96370.06;4759462;28;20484;-79
2023/01/27 03:24:21;;;;;;;20.70;11.37;;;;;;;-2.71;100.00;96364.22;4784029;28;20492;-79
2023/01/27 03:26:47;;;;;;;24.33;11.07;;;;;;;-2.68;100.00;96364.91;4766717;28;20500;-78
2023/01/27 03:32:07;;;;;;;19.17;11.07;;;;;;;-2.64;100.00;96369.00;4821052;28;20568;-79
2023/01/27 03:34:33;;;;;;;21.13;10.73;;;;;;;-2.65;100.00;96366.47;4762811;28;20639;-79
2023/01/27 03:48:05;;;;;;;21.47;10.07;;;;;;;-2.79;100.00;96358.63;4800437;28;20473;-79
2023/01/27 03:50:36;;;;;;;19.80;10.70;;;;;;;-2.73;100.00;96359.16;4833810;28;20472;-79
2023/01/27 03:53:04;;;;;;;19.33;11.13;;;;;;;-2.73;100.00;96353.16;4859928;28;20637;-78
2023/01/27 03:55:31;;;;;;;20.40;11.10;;;;;;;-2.81;100.00;96350.97;4856804;28;20505;-79
2023/01/27 03:58:04;;;;;;;22.07;11.20;;;;;;;-2.76;100.00;96361.03;4908595;28;20469;-79
2023/01/27 04:00:31;;;;;;;19.67;10.73;;;;;;;-2.88;100.00;96377.91;4903316;28;20466;-79
2023/01/27 04:08:28;;;;;;;21.13;11.23;;;;;;;-2.71;100.00;96375.34;4918800;28;21734;-79
2023/01/27 04:13:39;;;;;;;21.40;10.90;;;;;;;-2.77;100.00;96372.25;4869155;28;20781;-79
2023/01/27 04:16:05;;;;;;;16.97;9.10;;;;;;;-2.80;100.00;96374.97;4868714;28;21365;-78
2023/01/27 04:18:30;;;;;;;20.97;10.47;;;;;;;-2.77;100.00;96373.09;4848109;28;20465;-79
2023/01/27 04:20:56;;;;;;;21.40;10.90;;;;;;;-2.79;100.00;96380.03;4862195;28;20040;-79
2023/01/27 04:23:22;;;;;;;19.57;10.80;;;;;;;-2.78;100.00;96383.44;4863280;28;20121;-79
2023/01/27 04:25:52;;;;;;;21.20;11.93;;;;;;;-2.82;100.00;96385.31;4819680;28;20034;-79
2023/01/27 04:28:17;;;;;;;22.87;11.17;;;;;;;-2.82;100.00;96385.31;4797384;28;20571;-79
2023/01/27 04:30:44;;;;;;;21.17;11.77;;;;;;;-2.80;100.00;96386.09;4807951;28;20572;-78
2023/01/27 04:33:14;;;;;;;22.73;12.20;;;;;;;-2.81;100.00;96388.75;4847861;28;20058;-79
2023/01/27 04:35:44;;;;;;;23.10;12.40;;;;;;;-2.85;100.00;96390.63;4867711;28;20905;-79
2023/01/27 04:38:11;;;;;;;21.73;12.43;;;;;;;-2.94;100.00;96385.94;4878121;28;20517;-79
2023/01/27 04:40:36;;;;;;;22.73;12.37;;;;;;;-2.95;100.00;96392.81;4883505;28;20453;-79
2023/01/27 04:43:02;;;;;;;23.07;12.20;;;;;;;-2.83;100.00;96393.13;4915622;28;21109;-80
2023/01/27 04:45:28;;;;;;;23.13;12.30;;;;;;;-2.75;100.00;96386.72;4917392;28;20045;-79
2023/01/27 04:47:55;;;;;;;23.67;13.13;;;;;;;-2.86;100.00;96394.09;4901748;28;20391;-79
2023/01/27 04:50:21;;;;;;;22.23;12.87;;;;;;;-2.79;100.00;96392.06;4922937;28;20477;-80
2023/01/27 04:52:46;;;;;;;27.87;13.13;;;;;;;-2.88;100.00;96381.31;4913790;28;20521;-79
2023/01/27 04:55:12;;;;;;;23.30;13.33;;;;;;;-2.82;100.00;96390.47;4946732;28;20026;-80
2023/01/27 04:57:39;;;;;;;21.37;11.57;;;;;;;-2.90;100.00;96393.41;4980118;28;20172;-79
2023/01/27 05:00:07;;;;;;;23.43;11.00;;;;;;;-3.00;100.00;96396.50;4957393;28;20022;-79
2023/01/27 05:02:36;;;;;;;23.90;12.97;;;;;;;-2.99;100.00;96396.41;4958250;28;22103;-79
2023/01/27 05:05:05;;;;;;;22.60;12.23;;;;;;;-2.94;100.00;96401.38;4903204;28;20476;-79
2023/01/27 05:07:31;;;;;;;22.40;11.47;;;;;;;-3.00;100.00;96407.63;4873325;28;20495;-78
2023/01/27 05:09:57;;;;;;;22.90;13.00;;;;;;;-2.97;100.00;96404.09;4884725;28;20461;-78
2023/01/27 05:12:24;;;;;;;23.37;13.80;;;;;;;-2.88;100.00;96398.50;4858779;28;20461;-79
2023/01/27 05:14:49;;;;;;;24.83;12.67;;;;;;;-2.98;100.00;96399.84;4816447;28;20469;-78
2023/01/27 05:17:15;;;;;;;23.20;12.40;;;;;;;-2.83;100.00;96395.72;4820134;28;21932;-78
2023/01/27 05:19:41;;;;;;;20.57;10.40;;;;;;;-2.92;100.00;96399.53;4799096;28;20955;-79
2023/01/27 05:22:08;;;;;;;21.30;11.77;;;;;;;-2.98;100.00;96402.44;4817208;28;20041;-80
2023/01/27 05:24:34;;;;;;;20.97;11.10;;;;;;;-2.89;100.00;96399.41;4825075;28;22005;-80
2023/01/27 05:26:59;;;;;;;23.03;12.00;;;;;;;-2.92;100.00;96395.25;4816487;28;21556;-79
2023/01/27 05:29:25;;;;;;;20.40;10.27;;;;;;;-2.98;100.00;96397.28;4806631;28;20502;-78
2023/01/27 05:31:53;;;;;;;22.20;10.43;;;;;;;-2.94;100.00;96386.75;4768011;28;20056;-78
2023/01/27 05:34:19;;;;;;;19.73;10.17;;;;;;;-2.92;100.00;96387.53;4788316;28;20484;-78
2023/01/27 05:36:46;;;;;;;21.23;11.30;;;;;;;-2.85;100.00;96386.31;4837143;28;20853;-78
2023/01/27 05:39:11;;;;;;;19.17;10.23;;;;;;;-2.80;100.00;96391.25;4884710;28;20042;-79
2023/01/27 05:41:40;;;;;;;17.73;9.70;;;;;;;-2.82;100.00;96390.47;4861364;28;21006;-79
2023/01/27 05:44:11;;;;;;;20.17;10.67;;;;;;;-2.75;100.00;96391.88;4891631;28;20584;-78
2023/01/27 05:46:39;;;;;;;19.87;11.30;;;;;;;-2.81;100.00;96406.78;4909028;28;20473;-79
2023/01/27 05:49:06;;;;;;;19.73;10.60;;;;;;;-2.79;100.00;96408.34;4855814;28;20464;-78
2023/01/27 05:51:35;;;;;;;18.37;10.13;;;;;;;-2.82;100.00;96402.50;4864845;28;20473;-78
2023/01/27 05:54:00;;;;;;;19.70;10.50;;;;;;;-2.93;100.00;96405.59;4846857;28;23249;-79
2023/01/27 05:56:26;;;;;;;19.93;10.97;;;;;;;-2.85;100.00;96400.91;4841862;28;20466;-78
2023/01/27 05:58:53;;;;;;;18.53;9.83;;;;;;;-2.92;100.00;96414.97;4845142;28;20038;-78
2023/01/27 06:01:24;;;;;;;24.03;13.27;;;;;;;-2.89;100.00;96399.41;4899601;28;21866;-78
2023/01/27 06:03:50;;;;;;;22.23;11.70;;;;;;;-2.87;100.00;96402.75;4894890;28;20484;-78
2023/01/27 06:06:21;;;;;;;18.60;9.53;;;;;;;-2.95;100.00;96415.13;4861546;28;20649;-79
2023/01/27 06:08:48;;;;;;;16.43;9.77;;;;;;;-2.94;100.00;96422.78;4865287;28;20481;-78
2023/01/27 06:11:16;;;;;;;19.63;11.33;;;;;;;-2.98;100.00;96426.41;4844984;28;21012;-78
2023/01/27 06:13:41;;;;;;;19.53;11.53;;;;;;;-2.97;100.00;96422.94;4867622;28;22101;-78
2023/01/27 06:16:10;;;;;;;20.10;11.07;;;;;;;-2.92;100.00;96422.69;4860440;28;20473;-78
2023/01/27 06:18:36;;;;;;;23.30;12.27;;;;;;;-2.93;100.00;96428.75;4885784;28;20054;-79
2023/01/27 06:21:05;;;;;;;18.23;10.37;;;;;;;-2.90;100.00;96421.72;4864543;28;23349;-78
2023/01/27 06:23:31;;;;;;;19.17;10.83;;;;;;;-2.89;100.00;96420.81;4850631;28;20591;-78
2023/01/27 06:26:03;;;;;;;19.10;10.53;;;;;;;-2.98;100.00;96420.44;4877753;28;20875;-79
2023/01/27 06:28:29;;;;;;;16.02;8.52;;;;;;;-3.11;100.00;96415.03;4881984;28;20645;-78
2023/01/27 06:31:03;;;;;;;16.20;9.67;;;;;;;-2.85;100.00;96411.19;4984277;28;20125;-79
2023/01/27 06:33:28;;;;;;;18.27;10.25;;;;;;;-2.90;100.00;96423.47;4973373;28;20035;-79
2023/01/27 06:36:04;;;;;;;19.73;10.13;;;;;;;-2.87;100.00;96424.16;4971428;28;20041;-78
2023/01/27 06:38:49;;;;;;;19.00;10.57;;;;;;;-2.92;100.00;96433.00;4968825;28;21434;-85
2023/01/27 06:41:14;;;;;;;25.10;12.93;;;;;;;-2.91;100.00;96442.41;4986945;28;20462;-84
2023/01/27 06:43:43;;;;;;;21.10;11.47;;;;;;;-2.88;100.00;96445.66;4973650;28;20473;-84
2023/01/27 06:46:09;;;;;;;25.13;13.77;;;;;;;-2.91;100.00;96455.25;4972246;28;20034;-85
2023/01/27 06:48:36;;;;;;;30.23;16.07;;;;;;;-2.95;100.00;96452.00;4966268;28;20488;-85
2023/01/27 06:51:02;;;;;;;30.13;15.80;;;;;;;-2.75;100.00;96463.94;4979872;28;20038;-86
2023/01/27 06:53:31;;;;;;;35.10;21.93;;;;;;;-2.04;100.00;96455.34;4967015;28;20473;-83
2023/01/27 06:56:09;;;;;;;24.43;14.20;;;;;;;-2.63;100.00;96457.34;4987849;28;20044;-84
2023/01/27 06:58:36;;;;;;;44.03;25.13;;;;;;;-2.37;100.00;96458.69;4991158;28;20434;-84
2023/01/27 07:01:05;;;;;;;28.33;15.17;;;;;;;-2.32;100.00;96466.16;4978251;28;20520;-83
2023/01/27 07:03:30;;;;;;;34.70;19.23;;;;;;;-2.55;100.00;96464.72;4978891;28;20499;-85
2023/01/27 07:05:57;;;;;;;24.63;13.30;;;;;;;-2.84;100.00;96466.94;4964888;28;20490;-85
2023/01/27 07:08:35;;;;;;;27.27;14.73;;;;;;;-2.86;100.00;96471.31;4988332;28;20033;-85
2023/01/27 07:11:03;;;;;;;31.53;17.07;;;;;;;-2.78;100.00;96476.94;4974572;28;21511;-85
2023/01/27 07:13:29;;;;;;;30.83;16.23;;;;;;;-2.73;100.00;96477.56;4964408;28;21066;-85
2023/01/27 07:15:55;;;;;;;27.20;15.50;;;;;;;-2.70;100.00;96467.13;4957289;28;20462;-84
2023/01/27 07:18:21;;;;;;;22.63;12.70;;;;;;;-2.70;100.00;96472.25;4948430;28;20031;-85
2023/01/27 07:20:46;;;;;;;24.47;13.73;;;;;;;-2.74;100.00;96475.91;4973887;28;20580;-85
2023/01/27 07:23:12;;;;;;;23.13;12.80;;;;;;;-2.75;100.00;96483.66;4984873;28;20929;-85
2023/01/27 07:25:38;;;;;;;25.80;14.57;;;;;;;-2.67;100.00;96482.41;4956649;28;20030;-85
2023/01/27 07:28:04;;;;;;;23.30;12.70;;;;;;;-2.65;100.00;96475.47;4966027;28;20030;-85
2023/01/27 07:30:32;;;;;;;26.03;13.97;;;;;;;-2.74;100.00;96478.47;4973678;28;20465;-85
2023/01/27 07:33:04;;;;;;;24.20;13.03;;;;;;;-2.74;100.00;96486.19;4957842;28;21009;-85
2023/01/27 07:35:30;;;;;;;23.13;12.33;;;;;;;-2.71;100.00;96490.38;4955874;28;20473;-85
2023/01/27 07:37:56;;;;;;;24.57;14.73;;;;;;;-2.66;100.00;96498.69;4974371;28;20471;-80
2023/01/27 07:40:22;;;;;;;25.57;14.50;;;;;;;-2.61;100.00;96495.00;4970104;28;20053;-79
2023/01/27 07:42:48;;;;;;;26.27;12.60;;;;;;;-2.73;100.00;96503.28;4970947;28;20461;-80
2023/01/27 07:45:14;;;;;;;24.30;12.90;;;;;;;-2.67;100.00;96509.91;4975486;28;20105;-79
2023/01/27 07:47:39;;;;;;;28.00;15.37;;;;;;;-2.70;100.00;96517.75;4977810;28;20030;-79
2023/01/27 07:50:06;;;;;;;29.53;13.60;;;;;;;-2.62;100.00;96518.22;4974825;28;20031;-79
2023/01/27 07:52:34;;;;;;;24.13;12.33;;;;;;;-2.69;100.00;96527.97;4965021;28;20035;-79
2023/01/27 07:54:59;;;;;;;25.67;11.70;;;;;;;-2.68;100.00;96521.13;4990357;28;20481;-79
2023/01/27 07:57:25;;;;;;;138.30;69.43;;;;;;;-1.69;100.00;96516.25;4966721;28;20446;-86
2023/01/27 07:59:55;;;;;;;68.93;34.80;;;;;;;-1.45;100.00;96516.75;4978355;28;20200;-82
2023/01/27 08:02:22;;;;;;;26.63;13.83;;;;;;;-1.72;100.00;96524.16;4990462;28;20035;-80
2023/01/27 08:04:50;;;;;;;29.97;12.23;;;;;;;-1.55;100.00;96514.72;4963451;28;20469;-80
2023/01/27 08:07:17;;;;;;;23.20;11.03;;;;;;;-1.44;100.00;96515.84;4994107;28;20460;-81
2023/01/27 08:09:44;;;;;;;31.13;12.50;;;;;;;-1.13;100.00;96513.44;4975409;28;20481;-80
2023/01/27 08:12:15;;;;;;;21.73;10.97;;;;;;;-1.17;100.00;96515.34;4955822;28;20477;-79
2023/01/27 08:14:42;;;;;;;20.70;10.50;;;;;;;-1.03;100.00;96510.28;4967621;28;20850;-80
2023/01/27 08:17:08;;;;;;;65.20;42.67;;;;;;;-1.19;100.00;96512.81;4975124;28;20582;-80
2023/01/27 08:19:43;;;;;;;31.43;18.50;;;;;;;-1.14;100.00;96504.84;4963373;28;21183;-80
2023/01/27 08:23:18;;;;;;;23.70;11.33;;;;;;;-0.99;100.00;96491.13;4989714;28;20042;-81
2023/01/27 08:26:01;;;;;;;23.67;11.87;;;;;;;0.08;100.00;96491.25;4995416;28;21012;-81
2023/01/27 08:28:31;;;;;;;20.60;11.27;;;;;;;0.02;100.00;96484.66;4979881;28;20467;-84
2023/01/27 08:31:17;;;;;;;19.60;9.67;;;;;;;0.01;100.00;96471.84;4958191;28;20045;-83
2023/01/27 08:33:53;;;;;;;19.70;9.10;;;;;;;-0.08;100.00;96476.59;4991518;28;20464;-83
2023/01/27 08:36:42;;;;;;;15.97;8.60;;;;;;;-0.58;100.00;96477.69;4989582;28;20877;-84
2023/01/27 08:39:47;;;;;;;24.37;10.43;;;;;;;0.33;100.00;96477.69;5003566;28;20569;-84
2023/01/27 08:42:25;;;;;;;21.27;11.07;;;;;;;0.61;100.00;96476.91;4967392;28;20496;-83
2023/01/27 08:45:03;;;;;;;19.20;9.10;;;;;;;0.28;100.00;96482.31;4988955;28;20485;-84
2023/01/27 08:47:43;;;;;;;21.57;10.07;;;;;;;0.17;100.00;96475.19;4992218;28;20046;-84
2023/01/27 08:59:03;;;;;;;23.93;12.70;;;;;;;0.31;100.00;96484.72;4915291;29;20564;-85
2023/01/27 09:17:57;;;;;;;23.80;10.97;;;;;;;0.63;100.00;96491.38;4912407;29;20072;-83
2023/01/27 09:20:47;;;;;;;21.20;10.33;;;;;;;0.83;100.00;96487.59;4878993;29;20036;-83
2023/01/27 09:23:55;;;;;;;42.73;9.63;;;;;;;1.24;100.00;96481.66;4898160;29;20044;-88
2023/01/27 09:50:06;;;;;;;23.93;8.27;;;;;;;0.77;100.00;96489.72;4932080;29;20471;-82
2023/01/27 09:53:38;;;;;;;18.27;8.67;;;;;;;0.66;100.00;96498.97;4985912;28;20552;-88
2023/01/27 10:23:25;;;;;;;58.70;21.67;;;;;;;0.14;100.00;96530.50;4995278;28;20568;-83
2023/01/27 10:27:15;;;;;;;26.40;11.03;;;;;;;-0.35;100.00;96546.19;4948936;28;20983;-88
2023/01/27 10:30:20;;;;;;;16.37;7.70;;;;;;;-0.58;100.00;96551.78;4971009;28;20474;-88
2023/01/27 10:33:19;;;;;;;17.83;8.97;;;;;;;-1.16;100.00;96552.28;4993261;28;20469;-85
2023/01/27 10:36:08;;;;;;;16.00;8.50;;;;;;;-1.35;100.00;96542.09;4969725;28;20495;-84
2023/01/27 10:38:59;;;;;;;18.83;9.03;;;;;;;-1.46;100.00;96540.06;4993618;28;20470;-85
2023/01/27 10:41:32;;;;;;;21.47;10.17;;;;;;;-1.42;100.00;96546.72;4955750;28;20478;-85
2023/01/27 10:44:29;;;;;;;20.65;9.50;;;;;;;-1.42;100.00;96549.31;4957847;28;20470;-85
2023/01/27 10:47:18;;;;;;;27.23;11.20;;;;;;;-1.32;100.00;96547.91;4959463;28;20035;-85
2023/01/27 10:49:56;;;;;;;23.43;12.07;;;;;;;-1.39;100.00;96550.91;4989599;28;20490;-84
2023/01/27 10:52:45;;;;;;;21.40;11.97;;;;;;;-1.47;100.00;96548.72;4952981;28;20485;-85
2023/01/27 10:55:24;;;;;;;24.17;11.73;;;;;;;-1.36;100.00;96551.56;4955954;28;20484;-84
2023/01/27 10:57:59;;;;;;;22.40;10.97;;;;;;;-1.36;100.00;96551.56;4839696;28;20477;-87
2023/01/27 11:00:41;;;;;;;19.23;10.43;;;;;;;-1.33;100.00;96551.41;4832984;28;20469;-86
2023/01/27 11:03:25;;;;;;;30.07;13.03;;;;;;;-1.37;100.00;96557.66;4808277;28;20480;-85
2023/01/27 11:05:58;;;;;;;25.07;12.13;;;;;;;-1.45;100.00;96552.03;4818418;28;20469;-85
2023/01/27 11:08:31;;;;;;;23.63;12.27;;;;;;;-1.43;100.00;96552.81;4801518;28;20508;-84
2023/01/27 11:13:47;;;;;;;43.00;20.10;;;;;;;-1.49;100.00;96545.38;4790058;28;20038;-85
2023/01/27 11:16:26;;;;;;;92.23;43.90;;;;;;;-1.32;100.00;96547.09;4824189;28;20461;-86
2023/01/27 11:19:09;;;;;;;36.67;18.77;;;;;;;-1.39;100.00;96546.56;4960085;28;20483;-83
2023/01/27 11:21:37;;;;;;;45.00;21.63;;;;;;;-1.46;100.00;96537.47;4973983;28;20488;-78
2023/01/27 11:24:47;;;;;;;38.77;17.30;;;;;;;-1.45;100.00;96537.38;4962222;28;20465;-84
2023/01/27 11:28:19;;;;;;;23.07;12.23;;;;;;;-1.51;100.00;96536.88;4973377;28;20483;-85
2023/01/27 11:31:36;;;;;;;;;;;;;;;;;;;;;
2023/01/27 11:34:35;;;;;;;;;;;;;;;-1.21;100.00;96529.28;4973960;28;20053;-86
2023/01/27 11:37:32;;;;;;;21.63;10.67;;;;;;;-1.51;100.00;96521.38;4972328;28;19920;-84
2023/01/27 11:40:04;;;;;;;28.87;12.73;;;;;;;-1.35;100.00;96532.59;4982089;28;20469;-83
2023/01/27 11:43:26;;;;;;;;;;;;;;;;;;;;;
2023/01/27 11:46:03;;;;;;;26.83;12.93;;;;;;;-1.40;100.00;96533.75;4991544;28;20457;-82
2023/01/27 11:48:42;;;;;;;25.90;12.87;;;;;;;-1.60;100.00;96533.03;4964557;28;21056;-83
2023/01/27 11:51:27;;;;;;;31.50;14.67;;;;;;;-1.46;100.00;96534.91;4972913;28;20477;-84
2023/01/27 11:54:17;;;;;;;32.07;14.70;;;;;;;-1.41;100.00;96527.75;4971336;28;20514;-87
2023/01/27 11:56:46;;;;;;;32.50;14.37;;;;;;;-1.37;100.00;96531.84;4954892;28;20818;-83
2023/01/27 11:59:35;;;;;;;32.10;15.13;;;;;;;-1.57;100.00;96532.03;4969065;28;20472;-85
2023/01/27 12:02:32;;;;;;;34.67;15.27;;;;;;;-1.56;100.00;96531.94;4964985;28;20572;-83
2023/01/27 12:05:13;;;;;;;35.63;14.70;;;;;;;-1.63;100.00;96533.19;4989721;28;21051;-84
2023/01/27 12:07:55;;;;;;;32.27;15.07;;;;;;;-1.68;100.00;96536.00;4981347;28;20476;-84
2023/01/27 12:10:42;;;;;;;36.37;16.60;;;;;;;-1.58;100.00;96530.34;4961504;28;21047;-85
2023/01/27 12:13:24;;;;;;;32.80;16.13;;;;;;;-1.53;100.00;96525.81;4989213;28;21058;-85
2023/01/27 12:15:54;;;;;;;30.50;14.83;;;;;;;-1.47;100.00;96533.25;4987266;28;20473;-84
2023/01/27 12:18:22;;;;;;;44.80;18.97;;;;;;;-1.43;100.00;96534.75;4956842;28;20469;-84
2023/01/27 12:20:58;;;;;;;46.40;22.57;;;;;;;-1.43;100.00;96535.56;4943045;28;20982;-84
2023/01/27 12:23:54;;;;;;;72.70;27.00;;;;;;;-1.14;100.00;96522.94;4864910;28;20445;-88
2023/01/27 12:27:19;;;;;;;73.40;28.83;;;;;;;-0.62;100.00;96521.88;4904938;28;20500;-86
2023/01/27 12:29:53;;;;;;;80.37;33.33;;;;;;;-0.23;100.00;96513.69;4891188;28;20478;-88
2023/01/27 12:32:49;;;;;;;47.23;18.93;;;;;;;-0.50;100.00;96506.53;4942687;28;21237;-86
2023/01/27 12:35:46;;;;;;;27.33;14.50;;;;;;;-0.99;100.00;96500.63;4974759;28;20509;-88
2023/01/27 12:38:21;;;;;;;32.33;16.13;;;;;;;-1.10;100.00;96495.19;4977206;28;20552;-87
2023/01/27 12:41:06;;;;;;;33.15;16.38;;;;;;;-1.07;100.00;96482.13;4961107;28;20473;-86
2023/01/27 12:43:49;;;;;;;88.83;27.60;;;;;;;-0.01;100.00;96484.84;4972425;28;20509;-83
2023/01/27 12:46:57;;;;;;;32.40;15.85;;;;;;;-0.73;100.00;96488.88;4970638;28;20876;-88
